Time,TemperatureF,DewpointF,PressureIn,WindDirection,WindDirectionDegrees,WindSpeedMPH,WindSpeedGustMPH,Humidity,HourlyPrecipIn,Conditions,Clouds,dailyrainin,SolarRadiationWatts/m^2,SoftwareType,DateUTC
2013-06-06 00:01:00,60.6,59.5,29.90,NE,49,0.0,2.0,96,0.13,,,2.33,0.0,meteohub,2013-06-06 04:01:00,
2013-06-06 00:02:00,60.6,59.5,29.90,NE,49,0.0,2.0,96,0.13,,,2.33,0.0,meteohub,2013-06-06 04:02:00,
2013-06-06 00:03:00,60.4,59.4,29.90,NE,49,0.0,2.0,96,0.13,,,2.33,0.0,meteohub,2013-06-06 04:03:00,
2013-06-06 00:08:00,60.4,59.4,29.91,NE,49,0.0,2.0,96,0.09,,,0.00,0.0,meteohub,2013-06-06 04:08:00,
2013-06-06 00:13:00,60.4,59.4,29.91,NE,49,0.0,1.0,96,0.06,,,0.00,0.0,meteohub,2013-06-06 04:13:00,
2013-06-06 00:18:00,60.3,59.2,29.91,NE,49,0.0,1.0,96,0.03,,,0.00,0.0,meteohub,2013-06-06 04:18:00,
2013-06-06 00:23:00,60.3,59.2,29.91,NE,49,0.0,1.0,96,0.02,,,0.00,0.0,meteohub,2013-06-06 04:23:00,
2013-06-06 00:28:00,60.3,59.2,29.90,NE,49,0.0,0.0,96,0.01,,,0.00,0.0,meteohub,2013-06-06 04:28:00,
2013-06-06 00:33:00,60.3,59.2,29.90,NE,49,0.0,1.0,96,0.01,,,0.00,0.0,meteohub,2013-06-06 04:33:00,
2013-06-06 00:38:00,60.3,59.2,29.90,NE,49,0.0,1.0,96,0.00,,,0.00,0.0,meteohub,2013-06-06 04:38:00,
2013-06-06 00:43:00,60.1,59.0,29.90,NE,49,1.0,1.0,96,0.00,,,0.00,0.0,meteohub,2013-06-06 04:43:00,
2013-06-06 00:48:00,60.1,59.2,29.90,NE,49,0.0,1.0,97,0.00,,,0.00,0.0,meteohub,2013-06-06 04:48:00,
2013-06-06 00:53:00,60.1,59.2,29.89,NE,49,1.0,1.0,97,0.00,,,0.00,0.0,meteohub,2013-06-06 04:53:00,
2013-06-06 00:59:00,60.1,59.0,29.89,NE,49,1.0,1.0,96,0.01,,,0.01,0.0,meteohub,2013-06-06 04:59:00,
2013-06-06 01:04:00,59.9,58.8,29.88,NE,49,0.0,1.0,96,0.01,,,0.01,0.0,meteohub,2013-06-06 05:04:00,
2013-06-06 01:09:00,59.7,58.6,29.88,NE,49,0.0,1.0,96,0.01,,,0.01,0.0,meteohub,2013-06-06 05:09:00,
2013-06-06 01:14:00,59.7,58.6,29.88,NE,49,0.0,1.0,96,0.02,,,0.02,0.0,meteohub,2013-06-06 05:14:00,
2013-06-06 01:19:00,59.7,58.6,29.88,NE,49,0.0,1.0,96,0.02,,,0.02,0.0,meteohub,2013-06-06 05:19:00,
2013-06-06 01:24:00,59.7,58.6,29.88,NE,49,0.0,1.0,96,0.03,,,0.03,0.0,meteohub,2013-06-06 05:24:00,
2013-06-06 01:29:00,59.7,58.6,29.88,NE,49,0.0,2.0,96,0.04,,,0.04,0.0,meteohub,2013-06-06 05:29:00,
2013-06-06 01:34:00,59.7,58.6,29.88,NE,49,0.0,2.0,96,0.04,,,0.04,0.0,meteohub,2013-06-06 05:34:00,
2013-06-06 01:39:00,59.5,58.5,29.88,NE,49,0.0,2.0,96,0.04,,,0.04,0.0,meteohub,2013-06-06 05:39:00,
2013-06-06 01:45:00,59.5,58.5,29.88,NE,49,0.0,0.0,96,0.04,,,0.04,0.0,meteohub,2013-06-06 05:45:00,
2013-06-06 01:50:00,59.7,58.6,29.88,NE,49,0.0,0.0,96,0.04,,,0.04,0.0,meteohub,2013-06-06 05:50:00,
2013-06-06 01:55:00,59.7,58.8,29.87,NE,49,0.0,0.0,97,0.04,,,0.05,0.0,meteohub,2013-06-06 05:55:00,
2013-06-06 02:00:00,59.7,58.8,29.87,NE,49,0.0,1.0,97,0.04,,,0.05,0.0,meteohub,2013-06-06 06:00:00,
2013-06-06 02:05:00,59.7,58.8,29.87,NE,49,0.0,1.0,97,0.04,,,0.05,0.0,meteohub,2013-06-06 06:05:00,
2013-06-06 02:10:00,59.9,59.0,29.87,NE,49,0.0,2.0,97,0.03,,,0.05,0.0,meteohub,2013-06-06 06:10:00,
2013-06-06 02:15:00,60.1,59.2,29.86,NE,49,0.0,2.0,97,0.03,,,0.05,0.0,meteohub,2013-06-06 06:15:00,
2013-06-06 02:20:00,60.1,59.2,29.86,NE,49,0.0,2.0,97,0.02,,,0.05,0.0,meteohub,2013-06-06 06:20:00,
2013-06-06 02:25:00,60.1,59.2,29.86,NE,49,0.0,2.0,97,0.01,,,0.05,0.0,meteohub,2013-06-06 06:25:00,
2013-06-06 02:30:00,60.3,59.4,29.86,NE,49,0.0,2.0,97,0.01,,,0.05,0.0,meteohub,2013-06-06 06:30:00,
2013-06-06 02:35:00,60.3,59.4,29.86,NE,49,1.0,2.0,97,0.01,,,0.05,0.0,meteohub,2013-06-06 06:35:00,
2013-06-06 02:40:00,60.3,59.4,29.86,NE,49,1.0,2.0,97,0.01,,,0.05,0.0,meteohub,2013-06-06 06:40:00,
2013-06-06 02:45:00,60.3,59.4,29.86,NE,49,1.0,2.0,97,0.01,,,0.05,0.0,meteohub,2013-06-06 06:45:00,
2013-06-06 02:50:00,60.3,59.4,29.86,NE,49,1.0,2.0,97,0.01,,,0.05,0.0,meteohub,2013-06-06 06:50:00,
2013-06-06 02:55:00,60.3,59.4,29.86,NE,49,0.0,2.0,97,0.00,,,0.05,0.0,meteohub,2013-06-06 06:55:00,
2013-06-06 03:01:00,60.4,59.5,29.86,NE,49,0.0,2.0,97,0.00,,,0.05,0.0,meteohub,2013-06-06 07:01:00,
2013-06-06 03:06:00,60.4,59.5,29.86,NE,49,0.0,2.0,97,0.00,,,0.05,0.0,meteohub,2013-06-06 07:06:00,
2013-06-06 03:11:00,60.4,59.5,29.85,NE,49,0.0,2.0,97,0.00,,,0.05,0.0,meteohub,2013-06-06 07:11:00,
2013-06-06 03:16:00,60.4,59.5,29.85,NE,49,1.0,2.0,97,0.00,,,0.05,0.0,meteohub,2013-06-06 07:16:00,
2013-06-06 03:21:00,60.4,59.5,29.85,NE,49,1.0,2.0,97,0.00,,,0.05,0.0,meteohub,2013-06-06 07:21:00,
2013-06-06 03:26:00,60.3,59.4,29.84,NE,49,1.0,2.0,97,0.00,,,0.05,0.0,meteohub,2013-06-06 07:26:00,
2013-06-06 03:31:00,60.3,59.4,29.84,NE,49,1.0,2.0,97,0.00,,,0.05,0.0,meteohub,2013-06-06 07:31:00,
2013-06-06 03:36:00,60.3,59.4,29.84,NE,49,1.0,2.0,97,0.00,,,0.05,0.0,meteohub,2013-06-06 07:36:00,
2013-06-06 03:42:00,60.3,59.4,29.84,NE,49,0.0,2.0,97,0.00,,,0.05,0.0,meteohub,2013-06-06 07:42:00,
2013-06-06 03:47:00,60.3,59.4,29.84,NE,49,1.0,2.0,97,0.00,,,0.05,0.0,meteohub,2013-06-06 07:47:00,
2013-06-06 03:52:00,60.3,59.4,29.84,NE,49,0.0,2.0,97,0.00,,,0.05,0.0,meteohub,2013-06-06 07:52:00,
2013-06-06 03:57:00,60.3,59.4,29.83,NE,49,0.0,2.0,97,0.00,,,0.05,0.0,meteohub,2013-06-06 07:57:00,
2013-06-06 04:02:00,60.3,59.4,29.83,NE,49,0.0,2.0,97,0.00,,,0.05,0.0,meteohub,2013-06-06 08:02:00,
2013-06-06 04:07:00,60.3,59.4,29.83,NE,49,0.0,2.0,97,0.00,,,0.05,0.0,meteohub,2013-06-06 08:07:00,
2013-06-06 04:12:00,60.3,59.4,29.83,NE,49,0.0,2.0,97,0.00,,,0.05,0.0,meteohub,2013-06-06 08:12:00,
2013-06-06 04:17:00,60.3,59.4,29.83,NE,49,0.0,1.0,97,0.00,,,0.05,0.0,meteohub,2013-06-06 08:17:00,
2013-06-06 04:22:00,60.1,59.2,29.83,NE,49,0.0,1.0,97,0.00,,,0.05,0.0,meteohub,2013-06-06 08:22:00,
2013-06-06 04:27:00,60.1,59.2,29.83,NE,49,0.0,1.0,97,0.00,,,0.05,0.0,meteohub,2013-06-06 08:27:00,
2013-06-06 04:32:00,60.1,59.2,29.83,NE,49,0.0,1.0,97,0.00,,,0.05,0.0,meteohub,2013-06-06 08:32:00,
2013-06-06 04:37:00,60.1,59.2,29.83,NE,49,0.0,1.0,97,0.00,,,0.05,0.0,meteohub,2013-06-06 08:37:00,
2013-06-06 04:42:00,60.1,59.2,29.83,NE,49,0.0,1.0,97,0.00,,,0.05,0.0,meteohub,2013-06-06 08:42:00,
2013-06-06 04:47:00,60.1,59.2,29.83,NE,49,0.0,0.0,97,0.00,,,0.05,0.0,meteohub,2013-06-06 08:47:00,
2013-06-06 04:52:00,60.1,59.2,29.83,NE,49,0.0,0.0,97,0.00,,,0.05,0.0,meteohub,2013-06-06 08:52:00,
2013-06-06 04:57:00,60.1,59.2,29.83,NE,49,1.0,0.0,97,0.00,,,0.05,0.0,meteohub,2013-06-06 08:57:00,
2013-06-06 05:02:00,60.1,59.2,29.82,NE,49,0.0,1.0,97,0.00,,,0.05,0.0,meteohub,2013-06-06 09:02:00,
2013-06-06 05:07:00,60.1,59.2,29.82,NE,49,0.0,1.0,97,0.00,,,0.05,0.0,meteohub,2013-06-06 09:07:00,
2013-06-06 05:12:00,60.3,59.4,29.82,NE,49,0.0,1.0,97,0.00,,,0.05,0.0,meteohub,2013-06-06 09:12:00,
2013-06-06 05:17:00,60.3,59.4,29.82,NE,49,0.0,1.0,97,0.00,,,0.05,0.0,meteohub,2013-06-06 09:17:00,
2013-06-06 05:22:00,60.3,59.4,29.82,NE,49,1.0,1.0,97,0.00,,,0.05,0.0,meteohub,2013-06-06 09:22:00,
2013-06-06 05:27:00,60.3,59.4,29.82,NE,49,2.0,2.0,97,0.00,,,0.05,0.0,meteohub,2013-06-06 09:27:00,
2013-06-06 05:32:00,60.3,59.4,29.82,NE,49,0.0,2.0,97,0.00,,,0.05,0.0,meteohub,2013-06-06 09:32:00,
2013-06-06 05:37:00,60.3,59.4,29.82,NE,49,1.0,2.0,97,0.00,,,0.05,0.0,meteohub,2013-06-06 09:37:00,
2013-06-06 05:42:00,60.3,59.4,29.83,NE,49,1.0,2.0,97,0.00,,,0.05,0.0,meteohub,2013-06-06 09:42:00,
2013-06-06 05:47:00,60.3,59.4,29.82,NE,49,1.0,2.0,97,0.00,,,0.05,0.0,meteohub,2013-06-06 09:47:00,
2013-06-06 05:52:00,60.3,59.4,29.82,NE,49,1.0,2.0,97,0.00,,,0.05,0.0,meteohub,2013-06-06 09:52:00,
2013-06-06 05:57:00,60.3,59.4,29.83,NE,49,0.0,2.0,97,0.00,,,0.05,0.0,meteohub,2013-06-06 09:57:00,
2013-06-06 06:02:00,60.3,59.4,29.83,NE,49,1.0,2.0,97,0.00,,,0.05,0.0,meteohub,2013-06-06 10:02:00,
2013-06-06 06:07:00,60.3,59.4,29.82,NE,49,2.0,2.0,97,0.00,,,0.05,0.0,meteohub,2013-06-06 10:07:00,
2013-06-06 06:12:00,60.1,59.2,29.82,NE,49,1.0,3.0,97,0.00,,,0.05,0.0,meteohub,2013-06-06 10:12:00,
2013-06-06 06:17:00,60.1,59.2,29.82,NE,49,1.0,3.0,97,0.00,,,0.05,0.0,meteohub,2013-06-06 10:17:00,
2013-06-06 06:22:00,60.1,59.2,29.82,NE,49,1.0,3.0,97,0.00,,,0.05,5.0,meteohub,2013-06-06 10:22:00,
2013-06-06 06:27:00,60.1,59.2,29.82,NE,49,0.0,1.0,97,0.00,,,0.05,7.0,meteohub,2013-06-06 10:27:00,
2013-06-06 06:32:00,60.3,59.7,29.82,NE,49,0.0,1.0,98,0.00,,,0.05,9.0,meteohub,2013-06-06 10:32:00,
2013-06-06 06:37:00,60.3,59.7,29.82,NE,49,0.0,1.0,98,0.00,,,0.05,9.0,meteohub,2013-06-06 10:37:00,
2013-06-06 06:42:00,60.3,59.7,29.82,NE,49,0.0,1.0,98,0.00,,,0.05,12.0,meteohub,2013-06-06 10:42:00,
2013-06-06 06:47:00,60.3,59.7,29.82,NE,49,0.0,1.0,98,0.00,,,0.05,11.0,meteohub,2013-06-06 10:47:00,
2013-06-06 06:52:00,60.3,59.7,29.83,NE,49,0.0,0.0,98,0.00,,,0.05,9.0,meteohub,2013-06-06 10:52:00,
2013-06-06 06:56:00,60.4,59.9,29.83,NE,49,0.0,0.0,98,0.00,,,0.05,9.0,meteohub,2013-06-06 10:56:00,
2013-06-06 06:57:00,60.4,59.9,29.83,NE,49,0.0,0.0,98,0.00,,,0.05,9.0,meteohub,2013-06-06 10:57:00,
2013-06-06 07:02:00,60.4,59.9,29.83,NE,49,0.0,0.0,98,0.00,,,0.05,9.0,meteohub,2013-06-06 11:02:00,
2013-06-06 07:07:00,60.4,59.9,29.83,NE,49,0.0,0.0,98,0.00,,,0.05,9.0,meteohub,2013-06-06 11:07:00,
2013-06-06 07:12:00,60.6,60.1,29.83,NE,49,0.0,0.0,98,0.00,,,0.05,11.0,meteohub,2013-06-06 11:12:00,
2013-06-06 07:17:00,60.6,60.1,29.83,NE,49,0.0,0.0,98,0.00,,,0.05,9.0,meteohub,2013-06-06 11:17:00,
2013-06-06 07:22:00,60.6,60.1,29.83,NE,49,0.0,0.0,98,0.00,,,0.05,12.0,meteohub,2013-06-06 11:22:00,
2013-06-06 07:27:00,60.6,59.7,29.83,NE,49,0.0,0.0,97,0.00,,,0.05,23.0,meteohub,2013-06-06 11:27:00,
2013-06-06 07:32:00,60.6,59.7,29.83,NE,49,0.0,0.0,97,0.00,,,0.05,28.0,meteohub,2013-06-06 11:32:00,
2013-06-06 07:37:00,60.6,59.7,29.82,NE,49,0.0,0.0,97,0.00,,,0.05,33.0,meteohub,2013-06-06 11:37:00,
2013-06-06 07:42:00,60.8,60.3,29.82,NE,49,0.0,0.0,98,0.00,,,0.05,42.0,meteohub,2013-06-06 11:42:00,
2013-06-06 07:47:00,61.0,60.4,29.83,NE,49,0.0,0.0,98,0.00,,,0.05,39.0,meteohub,2013-06-06 11:47:00,
2013-06-06 07:52:00,61.0,60.4,29.83,NE,49,0.0,0.0,98,0.00,,,0.05,37.0,meteohub,2013-06-06 11:52:00,
2013-06-06 07:57:00,61.0,60.4,29.83,NE,49,0.0,0.0,98,0.00,,,0.05,39.0,meteohub,2013-06-06 11:57:00,
2013-06-06 08:02:00,61.2,60.6,29.83,NE,49,0.0,0.0,98,0.00,,,0.05,42.0,meteohub,2013-06-06 12:02:00,
2013-06-06 08:07:00,61.2,60.6,29.82,NE,49,0.0,0.0,98,0.00,,,0.05,44.0,meteohub,2013-06-06 12:07:00,
2013-06-06 08:12:00,61.2,60.6,29.83,NE,49,0.0,0.0,98,0.00,,,0.05,47.0,meteohub,2013-06-06 12:12:00,
2013-06-06 08:17:00,61.3,60.8,29.83,NE,49,0.0,0.0,98,0.00,,,0.05,60.0,meteohub,2013-06-06 12:17:00,
2013-06-06 08:23:00,61.3,60.8,29.83,NE,49,0.0,0.0,98,0.00,,,0.05,104.0,meteohub,2013-06-06 12:23:00,
2013-06-06 08:28:00,61.3,60.8,29.82,NE,49,0.0,0.0,98,0.00,,,0.05,120.0,meteohub,2013-06-06 12:28:00,
2013-06-06 08:33:00,61.5,61.0,29.82,NE,49,0.0,0.0,98,0.00,,,0.05,113.0,meteohub,2013-06-06 12:33:00,
2013-06-06 08:38:00,61.7,61.2,29.82,NE,49,0.0,0.0,98,0.00,,,0.05,102.0,meteohub,2013-06-06 12:38:00,
2013-06-06 08:43:00,61.9,61.3,29.82,NE,49,0.0,0.0,98,0.00,,,0.05,83.0,meteohub,2013-06-06 12:43:00,
2013-06-06 08:48:00,61.9,61.3,29.82,NE,49,0.0,1.0,98,0.00,,,0.05,90.0,meteohub,2013-06-06 12:48:00,
2013-06-06 08:53:00,62.1,61.5,29.82,NE,49,0.0,1.0,98,0.00,,,0.05,88.0,meteohub,2013-06-06 12:53:00,
2013-06-06 08:58:00,62.1,61.5,29.83,NE,49,0.0,0.0,98,0.00,,,0.05,127.0,meteohub,2013-06-06 12:58:00,
2013-06-06 09:03:00,62.2,61.7,29.83,NE,49,0.0,0.0,98,0.00,,,0.05,142.0,meteohub,2013-06-06 13:03:00,
2013-06-06 09:08:00,62.4,61.9,29.83,NE,49,0.0,1.0,98,0.00,,,0.05,167.0,meteohub,2013-06-06 13:08:00,
2013-06-06 09:13:00,62.6,62.1,29.83,NE,49,0.0,1.0,98,0.00,,,0.05,134.0,meteohub,2013-06-06 13:13:00,
2013-06-06 09:18:00,63.0,62.4,29.83,NE,49,0.0,1.0,98,0.00,,,0.05,149.0,meteohub,2013-06-06 13:18:00,
2013-06-06 09:23:00,63.1,62.6,29.83,NE,49,0.0,1.0,98,0.00,,,0.05,162.0,meteohub,2013-06-06 13:23:00,
2013-06-06 09:29:00,63.5,63.0,29.83,NE,49,0.0,1.0,98,0.00,,,0.05,230.0,meteohub,2013-06-06 13:29:00,
2013-06-06 09:34:00,63.9,63.3,29.83,ENE,73,0.0,2.0,98,0.00,,,0.05,167.0,meteohub,2013-06-06 13:34:00,
2013-06-06 09:39:00,63.9,63.3,29.83,SSW,199,2.0,2.0,98,0.00,,,0.05,162.0,meteohub,2013-06-06 13:39:00,
2013-06-06 09:44:00,64.0,63.5,29.83,SSW,199,0.0,2.0,98,0.00,,,0.05,223.0,meteohub,2013-06-06 13:44:00,
2013-06-06 09:49:00,64.0,63.5,29.83,SSW,198,0.0,2.0,98,0.00,,,0.05,178.0,meteohub,2013-06-06 13:49:00,
2013-06-06 09:54:00,64.2,63.7,29.83,SSW,198,0.0,2.0,98,0.00,,,0.05,156.0,meteohub,2013-06-06 13:54:00,
2013-06-06 09:59:00,64.2,63.7,29.83,South,173,1.0,1.0,98,0.00,,,0.05,135.0,meteohub,2013-06-06 13:59:00,
2013-06-06 10:05:00,64.2,63.7,29.83,South,173,0.0,1.0,98,0.00,,,0.05,176.0,meteohub,2013-06-06 14:05:00,
2013-06-06 10:10:00,64.6,63.7,29.82,South,173,0.0,1.0,97,0.00,,,0.05,520.0,meteohub,2013-06-06 14:10:00,
2013-06-06 10:15:00,64.9,64.4,29.82,East,93,0.0,2.0,98,0.00,,,0.05,446.0,meteohub,2013-06-06 14:15:00,
2013-06-06 10:20:00,65.3,64.8,29.82,South,184,0.0,3.0,98,0.00,,,0.05,200.0,meteohub,2013-06-06 14:20:00,
2013-06-06 10:25:00,65.5,64.9,29.82,South,184,1.0,3.0,98,0.00,,,0.05,171.0,meteohub,2013-06-06 14:25:00,
2013-06-06 10:30:00,65.7,64.8,29.82,South,184,0.0,3.0,97,0.00,,,0.05,250.0,meteohub,2013-06-06 14:30:00,
2013-06-06 10:35:00,65.7,64.8,29.82,WSW,238,0.0,1.0,97,0.00,,,0.05,267.0,meteohub,2013-06-06 14:35:00,
2013-06-06 10:40:00,66.0,65.1,29.81,WSW,238,0.0,3.0,97,0.00,,,0.05,353.0,meteohub,2013-06-06 14:40:00,
2013-06-06 10:45:00,66.2,65.3,29.82,WSW,238,0.0,3.0,97,0.00,,,0.05,176.0,meteohub,2013-06-06 14:45:00,
2013-06-06 10:50:00,66.4,65.1,29.82,SW,223,1.0,2.0,96,0.00,,,0.05,236.0,meteohub,2013-06-06 14:50:00,
2013-06-06 10:55:00,66.4,64.9,29.82,SSW,192,0.0,4.0,95,0.00,,,0.05,163.0,meteohub,2013-06-06 14:55:00,
2013-06-06 11:01:00,66.6,65.1,29.82,SSW,192,1.0,4.0,95,0.00,,,0.05,146.0,meteohub,2013-06-06 15:01:00,
2013-06-06 11:06:00,66.6,64.8,29.83,SSW,194,3.0,4.0,94,0.00,,,0.05,220.0,meteohub,2013-06-06 15:06:00,
2013-06-06 11:11:00,66.7,65.3,29.83,SSW,207,0.0,4.0,95,0.00,,,0.05,230.0,meteohub,2013-06-06 15:11:00,
2013-06-06 11:16:00,66.7,64.9,29.83,SSW,192,1.0,4.0,94,0.00,,,0.05,288.0,meteohub,2013-06-06 15:16:00,
2013-06-06 11:21:00,66.9,65.1,29.83,SW,221,3.0,4.0,94,0.00,,,0.05,265.0,meteohub,2013-06-06 15:21:00,
2013-06-06 11:26:00,66.9,65.1,29.83,WSW,250,1.0,3.0,94,0.00,,,0.05,232.0,meteohub,2013-06-06 15:26:00,
2013-06-06 11:31:00,66.9,64.8,29.83,SW,221,1.0,3.0,93,0.00,,,0.05,290.0,meteohub,2013-06-06 15:31:00,
2013-06-06 11:36:00,67.1,64.9,29.83,East,88,0.0,4.0,93,0.00,,,0.05,213.0,meteohub,2013-06-06 15:36:00,
2013-06-06 11:41:00,67.3,65.1,29.83,SW,235,0.0,4.0,93,0.00,,,0.05,227.0,meteohub,2013-06-06 15:41:00,
2013-06-06 11:46:00,67.3,65.1,29.83,SSW,194,0.0,3.0,93,0.00,,,0.05,214.0,meteohub,2013-06-06 15:46:00,
2013-06-06 11:51:00,67.5,65.3,29.83,ESE,105,0.0,4.0,93,0.00,,,0.05,104.0,meteohub,2013-06-06 15:51:00,
2013-06-06 11:57:00,67.3,65.1,29.83,East,99,0.0,4.0,93,0.00,,,0.05,135.0,meteohub,2013-06-06 15:57:00,
2013-06-06 12:02:00,67.3,65.1,29.83,WSW,245,1.0,4.0,93,0.00,,,0.05,93.0,meteohub,2013-06-06 16:02:00,
2013-06-06 12:07:00,67.1,64.9,29.83,SW,233,0.0,4.0,93,0.00,,,0.05,83.0,meteohub,2013-06-06 16:07:00,
2013-06-06 12:12:00,66.9,64.6,29.83,ESE,103,0.0,4.0,92,0.00,,,0.05,79.0,meteohub,2013-06-06 16:12:00,
2013-06-06 12:17:00,66.7,64.6,29.83,SSW,196,0.0,5.0,93,0.01,,,0.06,111.0,meteohub,2013-06-06 16:17:00,
2013-06-06 12:22:00,66.7,64.6,29.83,SSW,195,0.0,5.0,93,0.01,,,0.06,127.0,meteohub,2013-06-06 16:22:00,
2013-06-06 12:27:00,66.6,64.4,29.83,South,185,0.0,3.0,93,0.02,,,0.07,190.0,meteohub,2013-06-06 16:27:00,
2013-06-06 12:32:00,66.6,64.8,29.83,South,185,0.0,4.0,94,0.02,,,0.07,135.0,meteohub,2013-06-06 16:32:00,
2013-06-06 12:37:00,66.4,64.6,29.82,South,171,1.0,4.0,94,0.02,,,0.07,141.0,meteohub,2013-06-06 16:37:00,
2013-06-06 12:42:00,66.4,64.6,29.82,SW,215,0.0,4.0,94,0.02,,,0.07,134.0,meteohub,2013-06-06 16:42:00,
2013-06-06 12:47:00,66.4,64.6,29.81,SW,215,0.0,3.0,94,0.02,,,0.07,130.0,meteohub,2013-06-06 16:47:00,
2013-06-06 12:52:00,66.4,64.6,29.81,SW,232,1.0,3.0,94,0.02,,,0.07,262.0,meteohub,2013-06-06 16:52:00,
2013-06-06 12:57:00,66.4,64.6,29.81,SW,230,0.0,4.0,94,0.02,,,0.07,301.0,meteohub,2013-06-06 16:57:00,
2013-06-06 13:02:00,66.4,64.9,29.81,ENE,64,0.0,4.0,95,0.02,,,0.07,216.0,meteohub,2013-06-06 17:02:00,
2013-06-06 13:07:00,66.4,64.6,29.81,SW,223,0.0,4.0,94,0.02,,,0.07,327.0,meteohub,2013-06-06 17:07:00,
2013-06-06 13:12:00,66.6,65.1,29.81,South,175,0.0,4.0,95,0.02,,,0.07,239.0,meteohub,2013-06-06 17:12:00,
2013-06-06 13:18:00,66.7,65.3,29.81,South,175,2.0,4.0,95,0.01,,,0.07,260.0,meteohub,2013-06-06 17:18:00,
2013-06-06 13:23:00,67.1,65.7,29.81,SSE,150,0.0,4.0,95,0.00,,,0.07,388.0,meteohub,2013-06-06 17:23:00,
2013-06-06 13:28:00,67.3,65.8,29.80,SW,217,0.0,3.0,95,0.00,,,0.07,272.0,meteohub,2013-06-06 17:28:00,
2013-06-06 13:33:00,67.6,66.2,29.80,SSE,168,1.0,3.0,95,0.00,,,0.07,332.0,meteohub,2013-06-06 17:33:00,
2013-06-06 13:38:00,68.2,66.7,29.80,SSW,213,1.0,3.0,95,0.00,,,0.07,411.0,meteohub,2013-06-06 17:38:00,
2013-06-06 13:43:00,68.7,66.9,29.80,SSE,159,0.0,3.0,94,0.00,,,0.07,320.0,meteohub,2013-06-06 17:43:00,
2013-06-06 13:48:00,69.1,66.9,29.80,NW,306,0.0,3.0,93,0.00,,,0.07,257.0,meteohub,2013-06-06 17:48:00,
2013-06-06 13:53:00,69.3,66.9,29.79,SSW,195,1.0,3.0,92,0.00,,,0.07,366.0,meteohub,2013-06-06 17:53:00,
2013-06-06 13:58:00,69.3,66.6,29.79,SSE,150,2.0,3.0,91,0.00,,,0.07,292.0,meteohub,2013-06-06 17:58:00,
2013-06-06 14:03:00,69.3,66.2,29.79,ESE,109,1.0,4.0,90,0.00,,,0.07,179.0,meteohub,2013-06-06 18:03:00,
2013-06-06 14:08:00,69.3,66.2,29.79,ESE,116,1.0,5.0,90,0.00,,,0.07,206.0,meteohub,2013-06-06 18:08:00,
2013-06-06 14:13:00,69.1,66.0,29.79,SE,144,0.0,5.0,90,0.00,,,0.07,394.0,meteohub,2013-06-06 18:13:00,
2013-06-06 14:19:00,68.9,65.8,29.79,South,180,1.0,5.0,90,0.00,,,0.07,313.0,meteohub,2013-06-06 18:19:00,
2013-06-06 14:24:00,68.9,66.2,29.79,SSE,167,0.0,3.0,91,0.00,,,0.07,369.0,meteohub,2013-06-06 18:24:00,
2013-06-06 14:29:00,68.7,65.7,29.79,East,90,0.0,3.0,90,0.00,,,0.07,230.0,meteohub,2013-06-06 18:29:00,
2013-06-06 14:34:00,68.7,65.7,29.79,East,99,0.0,3.0,90,0.00,,,0.07,218.0,meteohub,2013-06-06 18:34:00,
2013-06-06 14:39:00,68.5,65.8,29.79,WSW,240,0.0,5.0,91,0.00,,,0.07,193.0,meteohub,2013-06-06 18:39:00,
2013-06-06 14:44:00,68.5,65.8,29.79,SW,225,2.0,5.0,91,0.00,,,0.07,163.0,meteohub,2013-06-06 18:44:00,
2013-06-06 14:49:00,68.4,65.7,29.78,SE,145,3.0,5.0,91,0.00,,,0.07,174.0,meteohub,2013-06-06 18:49:00,
2013-06-06 14:54:00,68.2,65.5,29.78,East,101,5.0,5.0,91,0.00,,,0.07,290.0,meteohub,2013-06-06 18:54:00,
2013-06-06 14:59:00,68.2,65.8,29.78,SW,225,3.0,5.0,92,0.00,,,0.07,355.0,meteohub,2013-06-06 18:59:00,
2013-06-06 15:04:00,68.2,65.5,29.78,SW,215,0.0,6.0,91,0.00,,,0.07,264.0,meteohub,2013-06-06 19:04:00,
2013-06-06 15:09:00,68.4,65.7,29.78,NNW,338,0.0,6.0,91,0.00,,,0.07,265.0,meteohub,2013-06-06 19:09:00,
2013-06-06 15:14:00,68.4,65.7,29.78,SW,227,1.0,4.0,91,0.00,,,0.07,246.0,meteohub,2013-06-06 19:14:00,
2013-06-06 15:19:00,68.4,65.7,29.78,SSE,166,1.0,4.0,91,0.00,,,0.07,162.0,meteohub,2013-06-06 19:19:00,
2013-06-06 15:24:00,68.4,66.0,29.78,South,169,0.0,4.0,92,0.00,,,0.07,163.0,meteohub,2013-06-06 19:24:00,
2013-06-06 15:29:00,68.4,65.7,29.77,SE,128,3.0,3.0,91,0.00,,,0.07,257.0,meteohub,2013-06-06 19:29:00,
2013-06-06 15:34:00,68.4,65.7,29.77,SSW,208,1.0,4.0,91,0.00,,,0.07,206.0,meteohub,2013-06-06 19:34:00,
2013-06-06 15:39:00,68.2,65.5,29.78,SSE,161,0.0,4.0,91,0.00,,,0.07,139.0,meteohub,2013-06-06 19:39:00,
2013-06-06 15:44:00,68.2,65.5,29.77,ENE,57,2.0,4.0,91,0.00,,,0.07,302.0,meteohub,2013-06-06 19:44:00,
2013-06-06 15:49:00,68.2,65.5,29.77,ESE,103,0.0,3.0,91,0.00,,,0.07,158.0,meteohub,2013-06-06 19:49:00,
2013-06-06 15:54:00,68.2,65.8,29.77,WSW,252,1.0,3.0,92,0.00,,,0.07,251.0,meteohub,2013-06-06 19:54:00,
2013-06-06 15:59:00,68.2,65.5,29.77,SSW,204,0.0,5.0,91,0.00,,,0.07,163.0,meteohub,2013-06-06 19:59:00,
2013-06-06 16:04:00,68.2,65.5,29.77,NNE,25,0.0,5.0,91,0.00,,,0.07,188.0,meteohub,2013-06-06 20:04:00,
2013-06-06 16:10:00,68.2,65.5,29.77,SW,227,1.0,3.0,91,0.00,,,0.07,105.0,meteohub,2013-06-06 20:10:00,
2013-06-06 16:15:00,68.0,65.3,29.77,SSE,161,1.0,3.0,91,0.00,,,0.07,63.0,meteohub,2013-06-06 20:15:00,
2013-06-06 16:20:00,67.8,65.5,29.77,East,82,0.0,3.0,92,0.00,,,0.07,199.0,meteohub,2013-06-06 20:20:00,
2013-06-06 16:25:00,67.8,65.5,29.77,SW,214,0.0,5.0,92,0.00,,,0.07,188.0,meteohub,2013-06-06 20:25:00,
2013-06-06 16:30:00,67.8,65.5,29.77,WSW,252,2.0,6.0,92,0.00,,,0.07,239.0,meteohub,2013-06-06 20:30:00,
2013-06-06 16:35:00,67.8,65.5,29.77,WSW,238,1.0,6.0,92,0.00,,,0.07,221.0,meteohub,2013-06-06 20:35:00,
2013-06-06 16:40:00,67.8,65.5,29.77,ESE,109,0.0,6.0,92,0.00,,,0.07,111.0,meteohub,2013-06-06 20:40:00,
2013-06-06 16:45:00,67.8,65.5,29.76,SW,223,1.0,3.0,92,0.00,,,0.07,172.0,meteohub,2013-06-06 20:45:00,
2013-06-06 16:50:00,67.8,65.5,29.77,West,271,1.0,3.0,92,0.00,,,0.07,118.0,meteohub,2013-06-06 20:50:00,
2013-06-06 16:55:00,67.6,65.3,29.76,South,178,2.0,3.0,92,0.00,,,0.07,56.0,meteohub,2013-06-06 20:55:00,
2013-06-06 17:00:00,67.6,65.3,29.76,SSW,213,1.0,3.0,92,0.00,,,0.07,65.0,meteohub,2013-06-06 21:00:00,
2013-06-06 17:05:00,67.3,64.9,29.76,South,186,1.0,4.0,92,0.01,,,0.08,93.0,meteohub,2013-06-06 21:05:00,
2013-06-06 17:10:00,67.3,65.1,29.76,SSW,211,0.0,4.0,93,0.01,,,0.08,93.0,meteohub,2013-06-06 21:10:00,
2013-06-06 17:15:00,67.1,64.9,29.76,South,184,1.0,4.0,93,0.01,,,0.08,83.0,meteohub,2013-06-06 21:15:00,
2013-06-06 17:20:00,66.9,64.8,29.76,South,184,0.0,3.0,93,0.01,,,0.08,83.0,meteohub,2013-06-06 21:20:00,
2013-06-06 17:25:00,66.7,64.6,29.76,SE,137,2.0,3.0,93,0.01,,,0.08,91.0,meteohub,2013-06-06 21:25:00,
2013-06-06 17:30:00,66.7,64.6,29.76,SSW,193,0.0,3.0,93,0.01,,,0.08,120.0,meteohub,2013-06-06 21:30:00,
2013-06-06 17:36:00,66.6,64.8,29.75,SSW,193,0.0,3.0,94,0.01,,,0.08,109.0,meteohub,2013-06-06 21:36:00,
2013-06-06 17:41:00,66.6,64.8,29.75,SSW,192,0.0,3.0,94,0.01,,,0.08,90.0,meteohub,2013-06-06 21:41:00,
2013-06-06 17:46:00,66.6,64.8,29.75,SSW,192,0.0,2.0,94,0.01,,,0.08,84.0,meteohub,2013-06-06 21:46:00,
2013-06-06 17:51:00,66.6,64.8,29.75,SW,226,1.0,2.0,94,0.01,,,0.08,111.0,meteohub,2013-06-06 21:51:00,
2013-06-06 17:56:00,66.6,64.8,29.75,NW,310,0.0,2.0,94,0.01,,,0.08,230.0,meteohub,2013-06-06 21:56:00,
2013-06-06 18:01:00,66.7,64.9,29.75,West,264,0.0,3.0,94,0.01,,,0.08,188.0,meteohub,2013-06-06 22:01:00,
2013-06-06 18:06:00,66.7,65.3,29.75,SSW,211,0.0,3.0,95,0.00,,,0.08,93.0,meteohub,2013-06-06 22:06:00,
2013-06-06 18:11:00,66.9,65.5,29.74,SSW,211,0.0,3.0,95,0.00,,,0.08,105.0,meteohub,2013-06-06 22:11:00,
2013-06-06 18:16:00,66.9,65.1,29.75,South,186,1.0,4.0,94,0.00,,,0.08,67.0,meteohub,2013-06-06 22:16:00,
2013-06-06 18:21:00,66.9,65.1,29.75,WSW,257,0.0,4.0,94,0.00,,,0.08,97.0,meteohub,2013-06-06 22:21:00,
2013-06-06 18:26:00,66.9,65.1,29.74,SE,136,1.0,4.0,94,0.00,,,0.08,116.0,meteohub,2013-06-06 22:26:00,
2013-06-06 18:31:00,66.9,65.1,29.74,South,171,0.0,4.0,94,0.00,,,0.08,88.0,meteohub,2013-06-06 22:31:00,
2013-06-06 18:36:00,66.7,64.9,29.74,SSW,206,0.0,4.0,94,0.00,,,0.08,70.0,meteohub,2013-06-06 22:36:00,
2013-06-06 18:42:00,66.7,64.9,29.74,SSW,198,0.0,4.0,94,0.00,,,0.08,91.0,meteohub,2013-06-06 22:42:00,
2013-06-06 18:47:00,66.7,64.9,29.74,SSW,198,0.0,4.0,94,0.00,,,0.08,65.0,meteohub,2013-06-06 22:47:00,
2013-06-06 18:52:00,66.6,64.8,29.74,WSW,238,0.0,3.0,94,0.00,,,0.08,21.0,meteohub,2013-06-06 22:52:00,
2013-06-06 18:57:00,66.6,64.8,29.74,WSW,237,1.0,3.0,94,0.00,,,0.08,39.0,meteohub,2013-06-06 22:57:00,
2013-06-06 19:02:00,66.4,64.6,29.74,ESE,123,1.0,2.0,94,0.00,,,0.08,25.0,meteohub,2013-06-06 23:02:00,
2013-06-06 19:07:00,66.2,64.4,29.74,WSW,248,0.0,2.0,94,0.00,,,0.08,26.0,meteohub,2013-06-06 23:07:00,
2013-06-06 19:12:00,66.0,64.2,29.74,ENE,72,0.0,2.0,94,0.02,,,0.10,32.0,meteohub,2013-06-06 23:12:00,
2013-06-06 19:17:00,65.8,64.0,29.74,SE,137,0.0,2.0,94,0.02,,,0.10,37.0,meteohub,2013-06-06 23:17:00,
2013-06-06 19:22:00,65.8,64.0,29.74,SSW,204,0.0,3.0,94,0.07,,,0.15,25.0,meteohub,2013-06-06 23:22:00,
2013-06-06 19:27:00,65.7,63.9,29.74,SSE,148,0.0,3.0,94,0.10,,,0.18,19.0,meteohub,2013-06-06 23:27:00,
2013-06-06 19:32:00,65.7,64.2,29.74,SSW,202,2.0,4.0,95,0.10,,,0.18,18.0,meteohub,2013-06-06 23:32:00,
2013-06-06 19:37:00,65.3,63.5,29.75,SW,227,0.0,4.0,94,0.10,,,0.18,12.0,meteohub,2013-06-06 23:37:00,
2013-06-06 19:42:00,65.1,63.7,29.75,SW,227,0.0,5.0,95,0.10,,,0.18,7.0,meteohub,2013-06-06 23:42:00,
2013-06-06 19:47:00,65.1,63.7,29.75,SE,141,0.0,5.0,95,0.10,,,0.18,7.0,meteohub,2013-06-06 23:47:00,
2013-06-06 19:52:00,64.9,63.5,29.75,South,190,0.0,5.0,95,0.11,,,0.19,7.0,meteohub,2013-06-06 23:52:00,
2013-06-06 19:57:00,64.9,63.5,29.75,ESE,117,0.0,4.0,95,0.11,,,0.19,9.0,meteohub,2013-06-06 23:57:00,
2013-06-06 20:02:00,64.8,63.3,29.75,SE,141,0.0,4.0,95,0.11,,,0.19,9.0,meteohub,2013-06-07 00:02:00,
2013-06-06 20:07:00,64.8,63.3,29.75,South,188,0.0,3.0,95,0.11,,,0.19,7.0,meteohub,2013-06-07 00:07:00,
2013-06-06 20:12:00,64.6,63.1,29.75,ENE,61,1.0,2.0,95,0.09,,,0.19,0.0,meteohub,2013-06-07 00:12:00,
2013-06-06 20:17:00,64.6,63.5,29.75,ENE,59,0.0,2.0,96,0.06,,,0.19,0.0,meteohub,2013-06-07 00:17:00,
2013-06-06 20:23:00,64.6,63.5,29.75,ENE,59,0.0,2.0,96,0.02,,,0.19,0.0,meteohub,2013-06-07 00:23:00,
2013-06-06 20:28:00,64.4,63.3,29.75,East,84,0.0,1.0,96,0.01,,,0.19,0.0,meteohub,2013-06-07 00:28:00,
2013-06-06 20:33:00,64.4,63.3,29.75,East,84,0.0,1.0,96,0.01,,,0.19,0.0,meteohub,2013-06-07 00:33:00,
2013-06-06 20:38:00,64.4,63.3,29.75,ESE,123,0.0,1.0,96,0.01,,,0.19,0.0,meteohub,2013-06-07 00:38:00,
2013-06-06 20:43:00,64.4,63.3,29.75,SSW,199,1.0,2.0,96,0.01,,,0.19,0.0,meteohub,2013-06-07 00:43:00,
2013-06-06 20:48:00,64.4,63.3,29.74,SW,234,0.0,2.0,96,0.00,,,0.19,0.0,meteohub,2013-06-07 00:48:00,
2013-06-06 20:53:00,64.2,63.1,29.74,SW,234,0.0,3.0,96,0.00,,,0.19,0.0,meteohub,2013-06-07 00:53:00,
2013-06-06 20:58:00,64.2,63.1,29.74,SW,234,1.0,3.0,96,0.00,,,0.19,0.0,meteohub,2013-06-07 00:58:00,
2013-06-06 21:03:00,64.2,63.1,29.74,SW,234,0.0,3.0,96,0.00,,,0.19,0.0,meteohub,2013-06-07 01:03:00,
2013-06-06 21:08:00,64.2,63.1,29.74,SW,229,0.0,3.0,96,0.00,,,0.19,0.0,meteohub,2013-06-07 01:08:00,
2013-06-06 21:13:00,64.0,63.0,29.74,SSE,158,2.0,3.0,96,0.00,,,0.19,0.0,meteohub,2013-06-07 01:13:00,
2013-06-06 21:18:00,64.0,63.0,29.74,SSE,157,0.0,3.0,96,0.01,,,0.20,0.0,meteohub,2013-06-07 01:18:00,
2013-06-06 21:23:00,64.0,63.1,29.74,SW,231,1.0,3.0,97,0.01,,,0.20,0.0,meteohub,2013-06-07 01:23:00,
2013-06-06 21:29:00,64.0,63.1,29.74,South,183,0.0,3.0,97,0.01,,,0.20,0.0,meteohub,2013-06-07 01:29:00,
2013-06-06 21:34:00,64.0,63.1,29.74,South,175,0.0,3.0,97,0.01,,,0.20,0.0,meteohub,2013-06-07 01:34:00,
2013-06-06 21:39:00,63.9,63.0,29.74,South,176,0.0,3.0,97,0.01,,,0.20,0.0,meteohub,2013-06-07 01:39:00,
2013-06-06 21:44:00,63.9,63.0,29.74,South,175,0.0,2.0,97,0.02,,,0.21,0.0,meteohub,2013-06-07 01:44:00,
2013-06-06 21:49:00,63.9,63.0,29.75,South,175,0.0,2.0,97,0.02,,,0.21,0.0,meteohub,2013-06-07 01:49:00,
2013-06-06 21:54:00,63.9,63.0,29.75,SSW,194,0.0,2.0,97,0.02,,,0.21,0.0,meteohub,2013-06-07 01:54:00,
2013-06-06 21:59:00,63.7,62.8,29.75,SW,236,0.0,2.0,97,0.02,,,0.21,0.0,meteohub,2013-06-07 01:59:00,
2013-06-06 22:04:00,63.7,62.8,29.75,SW,236,0.0,3.0,97,0.04,,,0.23,0.0,meteohub,2013-06-07 02:04:00,
2013-06-06 22:09:00,63.7,62.8,29.75,SW,236,0.0,3.0,97,0.06,,,0.24,0.0,meteohub,2013-06-07 02:09:00,
2013-06-06 22:14:00,63.7,62.8,29.75,SW,236,0.0,3.0,97,0.07,,,0.26,0.0,meteohub,2013-06-07 02:14:00,
2013-06-06 22:19:00,63.7,62.8,29.75,SW,236,0.0,1.0,97,0.08,,,0.28,0.0,meteohub,2013-06-07 02:19:00,
2013-06-06 22:24:00,63.7,62.8,29.75,SSW,207,2.0,2.0,97,0.09,,,0.29,0.0,meteohub,2013-06-07 02:24:00,
2013-06-06 22:29:00,63.7,62.8,29.75,SSW,207,0.0,2.0,97,0.12,,,0.32,0.0,meteohub,2013-06-07 02:29:00,
2013-06-06 22:35:00,63.7,62.8,29.75,SSW,207,0.0,2.0,97,0.14,,,0.34,0.0,meteohub,2013-06-07 02:35:00,
2013-06-06 22:40:00,63.7,62.8,29.75,SSW,207,0.0,2.0,97,0.16,,,0.36,0.0,meteohub,2013-06-07 02:40:00,
2013-06-06 22:45:00,63.7,62.8,29.75,NE,48,1.0,4.0,97,0.17,,,0.38,0.0,meteohub,2013-06-07 02:45:00,
2013-06-06 22:50:00,63.5,62.6,29.75,NE,48,0.0,4.0,97,0.17,,,0.38,0.0,meteohub,2013-06-07 02:50:00,
2013-06-06 22:55:00,63.3,62.4,29.75,NE,44,1.0,4.0,97,0.17,,,0.39,0.0,meteohub,2013-06-07 02:55:00,
2013-06-06 23:00:00,63.1,62.2,29.75,NE,45,0.0,2.0,97,0.15,,,0.39,0.0,meteohub,2013-06-07 03:00:00,
2013-06-06 23:05:00,63.1,62.2,29.75,SW,226,2.0,2.0,97,0.14,,,0.39,0.0,meteohub,2013-06-07 03:05:00,
2013-06-06 23:10:00,63.0,62.1,29.75,SSW,207,1.0,2.0,97,0.13,,,0.40,0.0,meteohub,2013-06-07 03:10:00,
2013-06-06 23:15:00,62.8,61.9,29.75,SSW,207,0.0,6.0,97,0.12,,,0.40,0.0,meteohub,2013-06-07 03:15:00,
2013-06-06 23:20:00,62.8,61.9,29.75,SSW,207,0.0,6.0,97,0.10,,,0.40,0.0,meteohub,2013-06-07 03:20:00,
2013-06-06 23:25:00,62.8,61.9,29.75,SSW,207,0.0,2.0,97,0.07,,,0.40,0.0,meteohub,2013-06-07 03:25:00,
2013-06-06 23:30:00,62.8,61.9,29.75,SSW,207,0.0,1.0,97,0.05,,,0.40,0.0,meteohub,2013-06-07 03:30:00,
2013-06-06 23:36:00,62.8,61.9,29.75,SSW,207,0.0,1.0,97,0.03,,,0.40,0.0,meteohub,2013-06-07 03:36:00,
2013-06-06 23:41:00,62.6,61.7,29.75,SSW,207,0.0,1.0,97,0.03,,,0.40,0.0,meteohub,2013-06-07 03:41:00,
2013-06-06 23:46:00,62.6,61.7,29.75,SSW,207,0.0,2.0,97,0.02,,,0.40,0.0,meteohub,2013-06-07 03:46:00,
2013-06-06 23:51:00,62.6,61.7,29.75,SSW,207,0.0,2.0,97,0.01,,,0.40,0.0,meteohub,2013-06-07 03:51:00,
2013-06-06 23:56:00,62.6,61.7,29.75,SSW,207,0.0,2.0,97,0.01,,,0.40,0.0,meteohub,2013-06-07 03:56:00,